Condicions actuals
Clear
Conditions



Pressió:
1017.92 (hPa) - 30.06 (inHG)
Visibilitat:

8.0 (km) - 5.0 (miles)
Base de Núvols

Clar (Mts) - Clar (Feets)
   Temperatura
12  °C
Temperatura
9  °C
P. rosada
82  %
 Humitat
   Velocitat del Vent
11  km/h
6  kts
7  mph
3.1  m/s
   Wind Direction
N
45°
E
90°
135°
S
180°
225°
O
270°
315°
 320°

Nord Oest
   Airport Data
LEBL
Barcelona International Airport
Metar :LEBL 050930Z 32006KT 290V350 8000 NSC 12/09 Q1018 NOSIG
Fri 5th March 10:30 am
   Raw Metar Info
Raw METAR is the most common format in the world for the transmission of observational weather data. It is highly standardized through the International Civil Aviation Organization (ICAO), which allows it to be understood throughout most of the world.
   API Info
Data Provided by
https://www.checkwx.com/weather/LEBL

Aviation Weather providing METAR, TAF, AIRMET, SIGMET and OUTLOOK Weather Reports
   © Info
CSS/SVG/PHP scripts were developed by weather34.com for use in the weather34 template © 2015-2021

Guide Info provided by Metar-Wikipedia